createdAt,value
2018-09-14T00:00:07.025Z,7.10
2018-09-14T00:02:34.819Z,10.90
2018-09-14T00:05:02.351Z,7.47
2018-09-14T00:07:29.903Z,6.20
2018-09-14T00:09:57.790Z,10.07
2018-09-14T00:12:25.303Z,8.30
2018-09-14T00:14:52.771Z,8.07
2018-09-14T00:17:20.579Z,9.00
2018-09-14T00:19:48.188Z,5.90
2018-09-14T00:22:15.673Z,7.83
2018-09-14T00:24:44.113Z,10.87
2018-09-14T00:27:11.571Z,12.63
2018-09-14T00:29:39.218Z,10.67
2018-09-14T00:32:06.747Z,8.33
2018-09-14T00:34:34.224Z,10.90
2018-09-14T00:37:01.784Z,9.30
2018-09-14T00:39:29.356Z,6.33
2018-09-14T00:41:57.067Z,7.80
2018-09-14T00:44:24.564Z,6.67
2018-09-14T00:46:52.117Z,6.63
2018-09-14T00:49:19.853Z,7.40
2018-09-14T00:51:47.748Z,8.07
2018-09-14T00:54:15.283Z,8.80
2018-09-14T00:56:43.562Z,6.00
2018-09-14T00:59:11.857Z,10.70
2018-09-14T01:01:39.855Z,5.97
2018-09-14T01:04:07.523Z,10.90
2018-09-14T01:06:35.168Z,7.50
2018-09-14T01:09:02.932Z,8.67
2018-09-14T01:11:30.690Z,11.43
2018-09-14T01:13:58.187Z,6.60
2018-09-14T01:16:26.205Z,8.63
2018-09-14T01:18:53.733Z,10.13
2018-09-14T01:21:21.356Z,6.30
2018-09-14T01:23:48.984Z,8.07
2018-09-14T01:26:16.670Z,7.50
2018-09-14T01:28:45.461Z,10.67
2018-09-14T01:31:13.176Z,9.47
2018-09-14T01:33:40.913Z,11.40
2018-09-14T01:36:10.965Z,12.90
2018-09-14T01:38:39.630Z,11.07
2018-09-14T01:41:07.747Z,13.63
2018-09-14T01:43:35.365Z,10.27
2018-09-14T01:46:03.053Z,10.10
2018-09-14T01:48:30.761Z,11.10
2018-09-14T01:50:58.414Z,8.10
2018-09-14T01:53:26.203Z,6.50
2018-09-14T01:55:53.755Z,10.60
2018-09-14T01:58:21.423Z,7.00
2018-09-14T02:00:49.175Z,12.43
2018-09-14T02:03:16.762Z,9.13
2018-09-14T02:05:44.926Z,8.23
2018-09-14T02:08:12.554Z,9.00
2018-09-14T02:10:40.173Z,9.50
2018-09-14T02:13:07.700Z,8.77
2018-09-14T02:15:35.411Z,6.73
2018-09-14T02:18:03.036Z,7.63
2018-09-14T02:20:30.800Z,9.57
2018-09-14T02:22:58.401Z,8.27
2018-09-14T02:25:26.168Z,8.20
2018-09-14T02:27:53.775Z,9.40
2018-09-14T02:30:21.369Z,9.47
2018-09-14T02:32:49.408Z,9.43
2018-09-14T02:35:17.567Z,8.20
2018-09-14T02:37:45.158Z,9.53
2018-09-14T02:40:12.659Z,7.80
2018-09-14T02:42:40.464Z,7.53
2018-09-14T02:45:08.315Z,9.03
2018-09-14T02:47:36.062Z,11.87
2018-09-14T02:50:03.786Z,9.23
2018-09-14T02:52:31.610Z,8.00
2018-09-14T02:54:59.172Z,10.00
2018-09-14T02:57:27.032Z,10.97
2018-09-14T02:59:54.544Z,9.47
2018-09-14T03:02:22.260Z,11.17
2018-09-14T03:04:49.857Z,7.73
2018-09-14T03:07:17.539Z,11.23
2018-09-14T03:09:45.053Z,11.27
2018-09-14T03:12:12.992Z,9.40
2018-09-14T03:14:40.593Z,8.23
2018-09-14T03:17:08.218Z,11.10
2018-09-14T03:19:35.775Z,8.23
2018-09-14T03:22:03.348Z,9.00
2018-09-14T03:24:30.850Z,10.63
2018-09-14T03:26:58.480Z,10.27
2018-09-14T03:29:26.551Z,9.77
2018-09-14T03:31:54.148Z,8.57
2018-09-14T03:34:22.063Z,8.20
2018-09-14T03:36:49.853Z,9.77
2018-09-14T03:39:17.677Z,12.97
2018-09-14T03:41:45.331Z,11.53
2018-09-14T03:44:13.252Z,10.67
2018-09-14T03:46:40.892Z,12.90
2018-09-14T03:49:08.478Z,8.37
2018-09-14T03:51:36.328Z,11.20
2018-09-14T03:54:04.133Z,10.07
2018-09-14T03:56:31.748Z,11.80
2018-09-14T03:58:59.215Z,8.13
2018-09-14T04:01:27.100Z,11.13
2018-09-14T04:03:54.683Z,7.13
2018-09-14T04:06:22.327Z,9.80
2018-09-14T04:08:50.416Z,10.73
2018-09-14T04:11:18.002Z,9.20
2018-09-14T04:13:45.587Z,8.00
2018-09-14T04:16:13.380Z,8.63
2018-09-14T04:18:41.114Z,7.63
2018-09-14T04:21:08.901Z,8.10
2018-09-14T04:23:36.884Z,8.20
2018-09-14T04:26:04.935Z,13.00
2018-09-14T04:28:33.150Z,9.37
2018-09-14T04:31:01.007Z,8.33
2018-09-14T04:33:28.619Z,6.73
2018-09-14T04:35:56.581Z,11.03
2018-09-14T04:38:24.073Z,8.40
2018-09-14T04:40:51.549Z,7.90
2018-09-14T04:43:19.066Z,7.70
2018-09-14T04:45:46.543Z,8.20
2018-09-14T04:48:14.613Z,8.37
2018-09-14T04:50:42.204Z,9.10
2018-09-14T04:53:09.747Z,8.17
2018-09-14T04:55:37.296Z,9.37
2018-09-14T04:58:05.284Z,9.27
2018-09-14T05:00:32.989Z,11.00
2018-09-14T05:03:00.582Z,12.00
2018-09-14T05:05:28.080Z,13.60
2018-09-14T05:07:55.787Z,10.27
2018-09-14T05:10:23.557Z,13.13
2018-09-14T05:12:51.187Z,8.23
2018-09-14T05:15:18.936Z,8.57
2018-09-14T05:17:47.282Z,13.10
2018-09-14T05:20:14.871Z,9.83
2018-09-14T05:22:42.412Z,10.90
2018-09-14T05:25:10.231Z,10.70
2018-09-14T05:27:37.784Z,11.27
2018-09-14T05:30:05.338Z,11.13
2018-09-14T05:32:33.954Z,8.40
2018-09-14T05:35:02.247Z,10.10
2018-09-14T05:37:29.912Z,13.40
2018-09-14T05:39:58.263Z,12.80
2018-09-14T05:42:26.197Z,10.77
2018-09-14T05:44:54.066Z,13.93
2018-09-14T05:47:21.903Z,12.90
2018-09-14T05:49:49.455Z,11.53
2018-09-14T05:52:16.953Z,11.63
2018-09-14T05:54:44.440Z,10.57
2018-09-14T05:57:12.658Z,10.83
2018-09-14T05:59:40.217Z,10.60
2018-09-14T06:02:07.680Z,19.30
2018-09-14T06:04:35.202Z,18.13
2018-09-14T06:07:02.673Z,14.87
2018-09-14T06:09:30.233Z,13.93
2018-09-14T06:11:57.752Z,15.33
2018-09-14T06:14:25.231Z,12.20
2018-09-14T06:16:52.799Z,12.17
2018-09-14T06:19:20.384Z,13.57
2018-09-14T06:21:48.019Z,11.00
2018-09-14T06:24:15.554Z,9.63
2018-09-14T06:26:43.003Z,10.57
2018-09-14T06:29:10.532Z,11.43
2018-09-14T06:31:38.027Z,11.00
2018-09-14T06:34:05.577Z,11.47
2018-09-14T06:36:33.071Z,12.70
2018-09-14T06:39:00.643Z,10.67
2018-09-14T06:41:28.263Z,15.53
2018-09-14T06:43:56.230Z,13.83
2018-09-14T06:46:23.867Z,13.77
2018-09-14T06:48:51.336Z,12.97
2018-09-14T06:51:18.803Z,15.13
2018-09-14T06:53:46.368Z,16.80
2018-09-14T06:56:13.998Z,14.40
2018-09-14T06:58:41.466Z,12.40
2018-09-14T07:01:08.988Z,11.60
2018-09-14T07:03:36.506Z,15.00
2018-09-14T07:06:04.021Z,11.40
2018-09-14T07:08:31.493Z,14.80
2018-09-14T07:10:58.992Z,14.43
2018-09-14T07:13:26.524Z,11.40
2018-09-14T07:15:53.965Z,11.60
2018-09-14T07:18:21.439Z,12.00
2018-09-14T07:20:48.931Z,12.50
2018-09-14T07:23:16.421Z,12.50
2018-09-14T07:25:43.918Z,14.03
2018-09-14T07:28:11.401Z,13.40
2018-09-14T07:30:39.318Z,11.97
2018-09-14T07:33:07.117Z,13.37
2018-09-14T07:35:34.776Z,11.87
2018-09-14T07:38:02.257Z,13.07
2018-09-14T07:40:29.747Z,9.73
2018-09-14T07:42:57.319Z,9.43
2018-09-14T07:45:24.863Z,9.63
2018-09-14T07:47:52.378Z,11.60
2018-09-14T07:50:20.283Z,12.00
2018-09-14T07:52:47.840Z,10.13
2018-09-14T07:55:15.407Z,10.27
2018-09-14T07:57:43.009Z,9.93
2018-09-14T08:00:10.591Z,9.33
2018-09-14T08:02:38.102Z,10.10
2018-09-14T08:05:06.337Z,8.47
2018-09-14T08:07:33.936Z,9.77
2018-09-14T08:10:01.499Z,8.23
2018-09-14T08:12:30.017Z,7.70
2018-09-14T08:14:57.697Z,11.40
2018-09-14T08:17:25.345Z,7.17
2018-09-14T08:19:52.889Z,7.90
2018-09-14T08:22:20.768Z,8.73
2018-09-14T08:24:48.300Z,7.33
2018-09-14T08:27:15.935Z,7.93
2018-09-14T08:29:43.528Z,11.17
2018-09-14T08:32:11.104Z,8.20
2018-09-14T08:34:38.685Z,7.97
2018-09-14T08:37:06.970Z,8.03
2018-09-14T08:39:34.701Z,7.27
2018-09-14T08:42:07.116Z,7.00
2018-09-14T08:44:34.731Z,10.30
2018-09-14T08:47:02.333Z,11.07
2018-09-14T08:49:29.871Z,6.37
2018-09-14T08:51:57.596Z,6.80
2018-09-14T08:54:25.155Z,7.20
2018-09-14T08:56:52.715Z,6.50
2018-09-14T08:59:20.309Z,10.27
2018-09-14T09:01:47.895Z,8.50
2018-09-14T09:04:15.891Z,8.90
2018-09-14T09:06:44.017Z,4.63
2018-09-14T09:09:12.766Z,6.17
2018-09-14T09:11:40.537Z,6.37
2018-09-14T09:14:08.211Z,4.73
2018-09-14T09:16:36.176Z,6.40
2018-09-14T09:19:03.794Z,4.70
2018-09-14T09:21:31.458Z,5.33
2018-09-14T09:23:59.176Z,7.20
2018-09-14T09:26:27.149Z,6.70
2018-09-14T09:28:54.668Z,5.67
2018-09-14T09:31:22.296Z,5.57
2018-09-14T09:33:49.808Z,4.80
2018-09-14T09:36:17.617Z,5.60
2018-09-14T09:38:45.273Z,4.37
2018-09-14T09:41:12.941Z,6.90
2018-09-14T09:43:40.925Z,5.00
2018-09-14T09:46:08.424Z,5.53
2018-09-14T09:48:36.040Z,3.40
2018-09-14T09:51:03.612Z,5.73
2018-09-14T09:53:31.158Z,5.03
2018-09-14T09:55:58.797Z,8.47
2018-09-14T09:58:26.464Z,5.27
2018-09-14T10:00:59.789Z,5.87
2018-09-14T10:03:33.194Z,6.40
2018-09-14T10:06:06.407Z,7.50
2018-09-14T10:08:33.886Z,4.53
2018-09-14T10:11:01.408Z,5.47
2018-09-14T10:13:28.980Z,7.03
2018-09-14T10:15:56.548Z,5.70
2018-09-14T10:18:24.181Z,6.00
2018-09-14T10:20:51.911Z,7.40
2018-09-14T10:23:19.455Z,4.77
2018-09-14T10:25:46.958Z,4.13
2018-09-14T10:28:14.396Z,7.20
2018-09-14T10:30:41.992Z,7.10
2018-09-14T10:33:09.532Z,4.47
2018-09-14T10:35:42.929Z,6.03
2018-09-14T10:38:10.792Z,4.10
2018-09-14T10:40:38.513Z,5.37
2018-09-14T10:43:06.928Z,6.70
2018-09-14T10:45:34.932Z,5.40
2018-09-14T10:48:03.484Z,5.40
2018-09-14T10:50:31.161Z,5.80
2018-09-14T10:52:58.985Z,4.43
2018-09-14T10:55:26.691Z,5.40
2018-09-14T10:57:54.204Z,4.70
2018-09-14T11:00:21.773Z,5.07
2018-09-14T11:02:49.354Z,4.97
2018-09-14T11:05:16.916Z,7.40
2018-09-14T11:07:44.678Z,5.07
2018-09-14T11:10:14.133Z,4.90
2018-09-14T11:12:42.223Z,3.53
2018-09-14T11:15:09.844Z,3.93
2018-09-14T11:17:37.865Z,3.30
2018-09-14T11:20:06.005Z,4.27
2018-09-14T11:22:34.209Z,4.13
2018-09-14T11:25:01.862Z,4.10
2018-09-14T11:27:30.205Z,6.77
2018-09-14T11:29:57.795Z,6.03
2018-09-14T11:32:34.014Z,3.30
2018-09-14T11:35:05.209Z,4.57
2018-09-14T11:37:33.278Z,5.70
2018-09-14T11:40:01.541Z,4.13
2018-09-14T11:42:29.776Z,3.57
2018-09-14T11:44:57.613Z,5.60
2018-09-14T11:47:25.405Z,3.83
2018-09-14T11:49:53.146Z,4.20
2018-09-14T11:52:21.153Z,4.63
2018-09-14T11:54:48.743Z,5.03
2018-09-14T11:57:16.377Z,3.33
2018-09-14T11:59:43.895Z,5.07
2018-09-14T12:02:11.601Z,5.80
2018-09-14T12:04:39.105Z,5.90
2018-09-14T12:07:07.048Z,4.10
2018-09-14T12:09:34.708Z,3.97
2018-09-14T12:12:02.479Z,2.87
2018-09-14T12:14:29.997Z,2.57
2018-09-14T12:16:57.559Z,4.47
2018-09-14T12:19:25.096Z,6.50
2018-09-14T12:21:52.604Z,4.50
2018-09-14T12:24:20.345Z,4.00
2018-09-14T12:26:47.919Z,5.10
2018-09-14T12:29:15.384Z,4.90
2018-09-14T12:31:43.536Z,5.93
2018-09-14T12:34:11.050Z,3.30
2018-09-14T12:36:38.828Z,4.43
2018-09-14T12:39:08.337Z,7.43
2018-09-14T12:41:35.961Z,3.00
2018-09-14T12:44:03.545Z,4.70
2018-09-14T12:46:31.092Z,5.10
2018-09-14T12:48:58.711Z,3.60
2018-09-14T12:51:28.344Z,3.87
2018-09-14T12:53:55.908Z,5.83
2018-09-14T12:56:23.751Z,4.70
2018-09-14T12:58:51.500Z,4.90
2018-09-14T13:01:19.033Z,4.37
2018-09-14T13:03:47.502Z,5.07
2018-09-14T13:06:15.437Z,5.80
2018-09-14T13:08:42.948Z,3.57
2018-09-14T13:11:16.062Z,5.60
2018-09-14T13:13:44.585Z,3.60
2018-09-14T13:16:12.260Z,5.10
2018-09-14T13:18:40.348Z,4.57
2018-09-14T13:21:08.923Z,11.03
2018-09-14T13:23:37.403Z,5.10
2018-09-14T13:26:05.033Z,3.90
2018-09-14T13:28:32.594Z,4.67
2018-09-14T13:31:02.468Z,4.60
2018-09-14T13:33:30.020Z,6.47
2018-09-14T13:35:57.518Z,4.33
2018-09-14T13:38:25.284Z,5.60
2018-09-14T13:40:52.739Z,4.63
2018-09-14T13:43:20.165Z,6.90
2018-09-14T13:45:47.596Z,4.40
2018-09-14T13:48:15.460Z,5.30
2018-09-14T13:50:43.176Z,4.20
2018-09-14T13:53:10.626Z,4.03
2018-09-14T13:55:38.203Z,6.30
2018-09-14T13:58:05.641Z,5.23
2018-09-14T14:00:33.120Z,7.67
2018-09-14T14:03:00.592Z,9.53
2018-09-14T14:05:28.291Z,8.77
2018-09-14T14:07:55.836Z,6.03
2018-09-14T14:10:23.389Z,3.97
2018-09-14T14:12:50.880Z,5.80
2018-09-14T14:15:18.457Z,4.70
2018-09-14T14:17:46.048Z,5.00
2018-09-14T14:20:13.490Z,5.53
2018-09-14T14:22:41.108Z,6.47
2018-09-14T14:25:08.967Z,5.90
2018-09-14T14:27:36.471Z,4.30
2018-09-14T14:30:04.265Z,5.13
2018-09-14T14:32:31.821Z,4.50
2018-09-14T14:34:59.436Z,5.50
2018-09-14T14:37:26.993Z,4.20
2018-09-14T14:39:54.520Z,8.03
2018-09-14T14:42:22.076Z,6.30
2018-09-14T14:44:49.592Z,6.40
2018-09-14T14:47:17.300Z,4.70
2018-09-14T14:49:44.858Z,7.00
2018-09-14T14:52:12.303Z,6.90
2018-09-14T14:54:39.873Z,5.73
2018-09-14T14:57:08.116Z,5.57
2018-09-14T14:59:35.629Z,4.93
2018-09-14T15:02:03.151Z,5.27
2018-09-14T15:04:30.647Z,5.83
2018-09-14T15:06:58.088Z,9.77
2018-09-14T15:09:25.531Z,5.10
2018-09-14T15:11:52.973Z,5.33
2018-09-14T15:14:20.451Z,6.37
2018-09-14T15:16:47.944Z,5.50
2018-09-14T15:19:15.574Z,9.30
2018-09-14T15:21:43.807Z,6.97
2018-09-14T15:24:11.271Z,6.00
2018-09-14T15:26:38.788Z,6.47
2018-09-14T15:29:07.147Z,5.50
2018-09-14T15:31:34.730Z,6.63
2018-09-14T15:34:02.266Z,9.03
2018-09-14T15:36:29.771Z,6.00
2018-09-14T15:38:57.214Z,6.63
2018-09-14T15:41:24.812Z,4.37
2018-09-14T15:43:52.319Z,5.77
2018-09-14T15:46:19.907Z,5.63
2018-09-14T15:48:48.184Z,8.60
2018-09-14T15:51:15.772Z,5.30
2018-09-14T15:53:43.386Z,7.00
2018-09-14T15:56:10.886Z,6.80
2018-09-14T15:58:38.688Z,7.20
2018-09-14T16:01:06.220Z,10.23
2018-09-14T16:03:33.824Z,6.70
2018-09-14T16:06:01.352Z,6.53
2018-09-14T16:08:29.113Z,5.27
2018-09-14T16:10:56.693Z,6.40
2018-09-14T16:13:24.179Z,5.13
2018-09-14T16:15:51.717Z,4.73
2018-09-14T16:18:19.452Z,5.73
2018-09-14T16:20:46.967Z,6.67
2018-09-14T16:23:14.446Z,7.00
2018-09-14T16:25:42.127Z,7.37
2018-09-14T16:28:09.639Z,6.60
2018-09-14T16:30:37.181Z,6.20
2018-09-14T16:33:04.969Z,5.73
2018-09-14T16:35:40.387Z,8.33
2018-09-14T16:38:07.995Z,6.20
2018-09-14T16:40:35.610Z,5.20
2018-09-14T16:43:04.018Z,6.47
2018-09-14T16:45:32.882Z,3.93
2018-09-14T16:48:00.717Z,7.07
2018-09-14T16:50:28.427Z,8.27
2018-09-14T16:52:56.203Z,5.27
2018-09-14T16:55:23.672Z,7.27
2018-09-14T16:57:51.135Z,8.23
2018-09-14T17:00:18.623Z,7.03
2018-09-14T17:02:46.189Z,5.17
2018-09-14T17:05:13.570Z,8.00
2018-09-14T17:07:41.124Z,4.90
2018-09-14T17:10:08.630Z,5.83
2018-09-14T17:12:36.514Z,5.70
2018-09-14T17:15:04.159Z,7.43
2018-09-14T17:17:31.745Z,4.83
2018-09-14T17:19:59.551Z,5.13
2018-09-14T17:22:27.005Z,7.00
2018-09-14T17:24:54.626Z,9.00
2018-09-14T17:27:22.164Z,5.27
2018-09-14T17:29:50.012Z,7.17
2018-09-14T17:32:17.560Z,6.20
2018-09-14T17:34:45.116Z,7.73
2018-09-14T17:37:12.652Z,5.27
2018-09-14T17:39:40.531Z,5.73
2018-09-14T17:42:08.279Z,6.43
2018-09-14T17:44:36.850Z,6.97
2018-09-14T17:47:04.334Z,5.87
2018-09-14T17:49:31.807Z,11.33
2018-09-14T17:51:59.437Z,5.33
2018-09-14T17:54:26.990Z,6.30
2018-09-14T17:56:54.621Z,5.97
2018-09-14T17:59:22.226Z,8.13
2018-09-14T18:01:49.707Z,10.30
2018-09-14T18:04:17.336Z,6.53
2018-09-14T18:06:44.937Z,5.00
2018-09-14T18:09:12.662Z,6.57
2018-09-14T18:11:40.345Z,13.63
2018-09-14T18:14:08.192Z,15.23
2018-09-14T18:16:35.720Z,10.80
2018-09-14T18:19:03.342Z,9.30
2018-09-14T18:21:30.969Z,8.43
2018-09-14T18:23:58.764Z,7.37
2018-09-14T18:26:26.745Z,9.87
2018-09-14T18:28:54.427Z,5.80
2018-09-14T18:31:22.257Z,6.30
2018-09-14T18:33:49.912Z,8.70
2018-09-14T18:36:17.486Z,8.33
2018-09-14T18:38:45.117Z,6.10
2018-09-14T18:41:12.828Z,7.87
2018-09-14T18:43:40.355Z,5.73
2018-09-14T18:46:07.938Z,6.97
2018-09-14T18:48:35.544Z,9.27
2018-09-14T18:51:03.131Z,12.47
2018-09-14T18:53:30.626Z,7.83
2018-09-14T18:55:58.127Z,8.20
2018-09-14T18:58:25.779Z,8.73
2018-09-14T19:00:53.317Z,7.67
2018-09-14T19:03:20.877Z,13.03
2018-09-14T19:05:49.153Z,21.87
2018-09-14T19:08:16.694Z,13.90
2018-09-14T19:10:44.223Z,11.80
2018-09-14T19:13:11.781Z,16.70
2018-09-14T19:15:39.284Z,16.23
2018-09-14T19:18:07.135Z,14.93
2018-09-14T19:20:34.801Z,15.20
2018-09-14T19:23:02.440Z,12.10
2018-09-14T19:25:30.191Z,11.80
2018-09-14T19:27:57.709Z,13.07
2018-09-14T19:30:25.261Z,11.27
2018-09-14T19:32:53.925Z,8.60
2018-09-14T19:35:21.560Z,9.43
2018-09-14T19:37:49.171Z,8.77
2018-09-14T19:40:16.730Z,10.03
2018-09-14T19:42:44.242Z,11.43
2018-09-14T19:45:11.807Z,11.33
2018-09-14T19:47:39.306Z,9.20
2018-09-14T19:50:06.851Z,11.50
2018-09-14T19:52:34.321Z,10.27
2018-09-14T19:55:02.055Z,10.37
2018-09-14T19:57:38.712Z,11.43
2018-09-14T20:00:07.006Z,12.50
2018-09-14T20:02:34.540Z,12.83
2018-09-14T20:05:02.061Z,11.47
2018-09-14T20:07:29.624Z,13.63
2018-09-14T20:09:57.189Z,11.50
2018-09-14T20:12:24.705Z,10.27
2018-09-14T20:14:52.178Z,10.90
2018-09-14T20:17:19.869Z,12.13
2018-09-14T20:19:47.307Z,14.13
2018-09-14T20:22:15.101Z,13.00
2018-09-14T20:24:42.711Z,13.43
2018-09-14T20:27:11.121Z,9.20
2018-09-14T20:29:38.662Z,10.30
2018-09-14T20:32:06.232Z,11.67
2018-09-14T20:34:34.499Z,9.53
2018-09-14T20:37:02.172Z,10.30
2018-09-14T20:39:29.666Z,14.40
2018-09-14T20:41:57.293Z,10.93
2018-09-14T20:44:24.922Z,12.03
2018-09-14T20:46:52.493Z,11.67
2018-09-14T20:49:20.284Z,11.47
2018-09-14T20:51:47.940Z,11.20
2018-09-14T20:54:17.150Z,11.57
2018-09-14T20:56:44.795Z,11.50
2018-09-14T20:59:12.419Z,12.77
2018-09-14T21:01:40.195Z,10.50
2018-09-14T21:04:07.889Z,10.03
2018-09-14T21:06:36.153Z,13.70
2018-09-14T21:09:05.881Z,10.63
2018-09-14T21:11:33.436Z,14.47
2018-09-14T21:14:01.276Z,11.13
2018-09-14T21:16:28.902Z,13.40
2018-09-14T21:18:56.501Z,12.20
2018-09-14T21:21:24.033Z,11.33
2018-09-14T21:23:52.096Z,11.87
2018-09-14T21:26:20.238Z,11.00
2018-09-14T21:28:48.026Z,11.60
2018-09-14T21:31:15.844Z,11.47
2018-09-14T21:33:43.426Z,11.20
2018-09-14T21:36:10.962Z,11.37
2018-09-14T21:38:38.511Z,14.50
2018-09-14T21:41:06.803Z,11.57
2018-09-14T21:43:34.402Z,10.77
2018-09-14T21:46:01.993Z,12.07
2018-09-14T21:48:31.753Z,10.77
2018-09-14T21:50:59.366Z,10.27
2018-09-14T21:53:27.104Z,11.03
2018-09-14T21:55:54.803Z,11.77
2018-09-14T21:58:22.385Z,13.50
2018-09-14T22:00:55.551Z,13.43
2018-09-14T22:03:23.428Z,9.77
2018-09-14T22:05:51.586Z,10.10
2018-09-14T22:08:20.045Z,9.40
2018-09-14T22:10:47.528Z,12.10
2018-09-14T22:13:15.349Z,9.90
2018-09-14T22:15:43.015Z,8.90
2018-09-14T22:18:10.546Z,11.80
2018-09-14T22:20:38.113Z,10.33
2018-09-14T22:23:05.988Z,10.60
2018-09-14T22:25:33.612Z,9.73
2018-09-14T22:28:01.242Z,10.90
2018-09-14T22:30:29.015Z,11.17
2018-09-14T22:32:56.565Z,9.63
2018-09-14T22:35:24.268Z,9.57
2018-09-14T22:37:51.769Z,9.17
2018-09-14T22:40:19.459Z,11.10
2018-09-14T22:42:47.087Z,10.37
2018-09-14T22:45:14.756Z,8.73
2018-09-14T22:47:42.438Z,7.70
2018-09-14T22:50:10.263Z,10.33
2018-09-14T22:52:38.014Z,10.40
2018-09-14T22:55:05.687Z,7.50
2018-09-14T22:57:33.335Z,7.90
2018-09-14T23:00:00.956Z,10.57
2018-09-14T23:02:28.456Z,8.80
2018-09-14T23:04:56.002Z,7.00
2018-09-14T23:07:23.852Z,7.50
2018-09-14T23:09:51.464Z,9.00
2018-09-14T23:12:18.960Z,8.07
2018-09-14T23:14:46.732Z,7.93
2018-09-14T23:17:14.674Z,6.50
2018-09-14T23:19:42.587Z,9.00
2018-09-14T23:22:19.757Z,10.67
2018-09-14T23:24:48.768Z,10.67
2018-09-14T23:27:16.177Z,7.70
2018-09-14T23:29:43.573Z,7.70
2018-09-14T23:32:11.213Z,8.00
2018-09-14T23:34:38.577Z,8.70
2018-09-14T23:37:06.037Z,12.20
2018-09-14T23:39:33.445Z,10.10
2018-09-14T23:42:01.504Z,10.73
2018-09-14T23:44:28.877Z,9.03
2018-09-14T23:46:56.314Z,9.93
2018-09-14T23:49:23.703Z,9.90
2018-09-14T23:51:51.057Z,9.40
2018-09-14T23:54:18.421Z,8.40
2018-09-14T23:56:45.794Z,9.90
2018-09-14T23:59:13.202Z,9.30
